Time;durP1;ratioP1;P1;durP2;ratioP2;P2;SDS_P1;SDS_P2;PMS_P1;PMS_P2;Temp;Humidity;BMP_temperature;BMP_pressure;BME280_temperature;BME280_humidity;BME280_pressure;Samples;Min_cycle;Max_cycle;Signal;HPM_P1;HPM_P2
2023/05/28 00:01:23;;;;;;;5.82;3.35;;;;;;;17.02;38.74;99409.56;5148884;27;20303;-78
2023/05/28 00:03:52;;;;;;;6.22;3.38;;;;;;;16.99;38.88;99405.28;5148728;27;20039;-79
2023/05/28 00:06:18;;;;;;;5.72;3.58;;;;;;;16.96;38.83;99405.53;5148930;27;20039;-79
2023/05/28 00:08:45;;;;;;;6.93;3.72;;;;;;;16.33;38.96;99305.34;5149565;27;20035;-79
2023/05/28 00:11:12;;;;;;;4.68;3.05;;;;;;;16.86;39.17;99399.22;5148854;27;20035;-79
2023/05/28 00:13:39;;;;;;;6.50;3.33;;;;;;;16.82;39.29;99406.66;5148821;27;20244;-79
2023/05/28 00:16:05;;;;;;;6.03;3.20;;;;;;;16.81;39.16;99396.91;5149749;27;20108;-78
2023/05/28 00:18:32;;;;;;;5.25;3.20;;;;;;;16.24;39.02;99306.91;5131502;27;20035;-76
2023/05/28 00:21:03;;;;;;;5.68;3.60;;;;;;;16.74;39.54;99395.69;5150170;27;20288;-78
2023/05/28 00:23:30;;;;;;;5.72;3.50;;;;;;;16.71;39.57;99392.41;5148388;27;20067;-78
2023/05/28 00:25:56;;;;;;;7.72;4.53;;;;;;;16.67;39.28;99389.13;5149044;27;20035;-78
2023/05/28 00:28:23;;;;;;;7.97;3.90;;;;;;;16.62;39.24;99386.78;5148719;27;20118;-78
2023/05/28 00:30:50;;;;;;;4.70;3.80;;;;;;;16.58;39.18;99389.84;5148256;27;20063;-78
2023/05/28 00:33:17;;;;;;;5.03;2.90;;;;;;;16.52;39.33;99382.31;5149559;27;20061;-78
2023/05/28 00:35:43;;;;;;;6.18;3.75;;;;;;;16.48;39.75;99380.84;5148214;27;20123;-78
2023/05/28 00:38:11;;;;;;;4.32;2.97;;;;;;;16.45;39.75;99387.28;5148119;27;20073;-78
2023/05/28 00:40:43;;;;;;;6.32;4.28;;;;;;;14.14;40.09;99008.16;5149121;27;20190;-78
2023/05/28 00:43:10;;;;;;;7.18;3.10;;;;;;;16.38;39.77;99378.03;5148742;27;20063;-78
2023/05/28 00:45:37;;;;;;;5.72;3.40;;;;;;;16.31;40.11;99377.66;5149230;27;20045;-78
2023/05/28 00:48:04;;;;;;;3.90;2.83;;;;;;;16.29;39.77;99374.25;5147849;27;20291;-78
2023/05/28 00:50:32;;;;;;;5.65;3.33;;;;;;;16.26;40.09;99379.84;5148695;27;20079;-78
2023/05/28 00:53:00;;;;;;;4.95;3.47;;;;;;;16.22;40.05;99370.38;5147761;27;20348;-78
2023/05/28 00:55:28;;;;;;;6.28;3.40;;;;;;;16.17;39.84;99375.22;5148929;27;20106;-78
2023/05/28 00:57:55;;;;;;;4.72;3.05;;;;;;;16.12;40.12;99372.06;5148533;27;20099;-78
2023/05/28 01:00:23;;;;;;;6.05;2.88;;;;;;;16.09;39.90;99366.94;5148448;27;20051;-77
2023/05/28 01:02:50;;;;;;;6.90;3.17;;;;;;;16.07;40.24;99366.22;5148461;27;20295;-78
2023/05/28 01:05:17;;;;;;;4.85;2.90;;;;;;;16.04;40.09;99359.28;5148589;27;20035;-78
2023/05/28 01:07:44;;;;;;;4.68;3.22;;;;;;;16.00;40.03;99365.84;5147506;27;20245;-78
2023/05/28 01:10:11;;;;;;;6.05;3.20;;;;;;;15.97;40.59;99352.72;5148778;27;20092;-78
2023/05/28 01:12:43;;;;;;;8.07;3.80;;;;;;;15.93;40.49;99351.25;5148236;27;20191;-78
2023/05/28 01:15:17;;;;;;;6.85;3.53;;;;;;;15.92;41.18;99354.88;5148814;27;20051;-78
2023/05/28 01:17:44;;;;;;;5.50;3.85;;;;;;;15.65;40.42;99308.91;5148377;27;20039;-78
2023/05/28 01:20:13;;;;;;;6.13;3.20;;;;;;;15.87;40.79;99345.53;5148593;27;20343;-78
2023/05/28 01:22:53;;;;;;;6.40;3.85;;;;;;;15.83;40.83;99349.41;5148338;27;20084;-78
2023/05/28 01:25:22;;;;;;;4.57;3.28;;;;;;;15.78;40.75;99355.09;5147015;27;20045;-78
2023/05/28 01:27:49;;;;;;;5.85;4.10;;;;;;;15.75;40.93;99344.63;5130096;27;20374;-78
2023/05/28 01:30:17;;;;;;;6.03;3.78;;;;;;;15.42;40.83;99286.59;5148394;27;20113;-78
2023/05/28 01:32:44;;;;;;;4.65;3.38;;;;;;;15.69;40.89;99345.09;5146675;27;20042;-78
2023/05/28 01:35:11;;;;;;;5.70;3.67;;;;;;;15.64;41.43;99342.75;5147802;27;20039;-78
2023/05/28 01:37:40;;;;;;;5.47;3.22;;;;;;;15.64;41.24;99339.22;5148024;27;20039;-78
2023/05/28 01:40:09;;;;;;;4.35;3.38;;;;;;;15.61;41.39;99340.31;5147963;27;20221;-78
2023/05/28 01:42:38;;;;;;;6.18;3.00;;;;;;;15.57;41.87;99340.66;5147191;27;20233;-78
2023/05/28 01:45:08;;;;;;;4.47;3.38;;;;;;;15.57;41.41;99346.00;5146732;27;20095;-78
2023/05/28 01:47:35;;;;;;;6.72;3.35;;;;;;;14.84;41.75;99239.41;5146677;27;20251;-78
2023/05/28 01:50:07;;;;;;;6.65;3.22;;;;;;;15.52;41.83;99338.34;5147408;27;20043;-78
2023/05/28 01:52:33;;;;;;;6.30;3.28;;;;;;;15.47;41.89;99324.50;5146628;27;20125;-78
2023/05/28 01:55:00;;;;;;;4.82;3.60;;;;;;;15.44;41.88;99332.72;5147699;27;20039;-79
2023/05/28 01:57:27;;;;;;;4.88;2.97;;;;;;;15.40;41.95;99325.91;5129567;27;20116;-78
2023/05/28 01:59:58;;;;;;;5.30;3.65;;;;;;;15.33;42.07;99333.53;5147596;27;20035;-79
2023/05/28 02:02:26;;;;;;;6.13;3.95;;;;;;;15.29;42.05;99332.06;5147266;27;20045;-79
2023/05/28 02:04:53;;;;;;;6.63;3.45;;;;;;;15.26;42.04;99329.63;5147186;27;20111;-78
2023/05/28 02:07:20;;;;;;;4.85;3.38;;;;;;;15.24;41.94;99323.56;5147488;27;20035;-79
2023/05/28 02:09:47;;;;;;;6.05;3.80;;;;;;;14.85;42.27;99265.97;5147493;27;20042;-78
2023/05/28 02:12:15;;;;;;;7.72;3.70;;;;;;;15.14;42.24;99327.88;5147745;27;20061;-79
2023/05/28 02:14:42;;;;;;;5.85;3.33;;;;;;;15.13;42.53;99327.97;5147610;27;20051;-79
2023/05/28 02:17:10;;;;;;;5.65;2.90;;;;;;;15.10;42.54;99330.88;5147364;27;20059;-78
2023/05/28 02:19:37;;;;;;;5.53;3.53;;;;;;;14.36;42.31;99216.19;5147584;27;20042;-79
2023/05/28 02:22:10;;;;;;;6.78;3.30;;;;;;;15.04;42.26;99334.84;5147544;27;20084;-79
2023/05/28 02:24:36;;;;;;;6.07;2.97;;;;;;;14.94;42.72;99334.69;5146922;27;20049;-79
2023/05/28 02:27:04;;;;;;;5.53;3.42;;;;;;;14.91;42.64;99337.56;5146741;27;20058;-79
2023/05/28 02:29:31;;;;;;;5.13;3.30;;;;;;;14.90;43.14;99341.22;5147122;27;20058;-78
2023/05/28 02:32:00;;;;;;;6.82;3.67;;;;;;;14.89;43.18;99336.84;5145997;27;20035;-79
2023/05/28 02:34:29;;;;;;;5.68;3.53;;;;;;;14.65;43.31;99301.28;5145968;27;20318;-78
2023/05/28 02:36:56;;;;;;;6.35;3.53;;;;;;;14.85;43.27;99343.34;5145897;27;20110;-78
2023/05/28 02:39:23;;;;;;;6.20;3.45;;;;;;;14.81;43.01;99355.22;5145867;27;20035;-79
2023/05/28 02:41:50;;;;;;;5.60;3.70;;;;;;;14.75;43.43;99345.00;5146463;27;20054;-78
2023/05/28 02:44:17;;;;;;;6.82;3.42;;;;;;;14.69;43.31;99340.09;5145813;27;20043;-78
2023/05/28 02:46:44;;;;;;;6.72;3.22;;;;;;;14.00;43.33;99251.66;5145807;28;20049;-78
2023/05/28 02:49:11;;;;;;;5.63;3.72;;;;;;;11.96;43.83;98906.69;5146811;28;20092;-78
2023/05/28 02:51:39;;;;;;;5.97;3.33;;;;;;;14.56;43.54;99348.06;5145587;28;20049;-78
2023/05/28 02:54:06;;;;;;;5.47;3.58;;;;;;;14.56;43.63;99355.22;5145825;28;20211;-79
2023/05/28 02:56:34;;;;;;;7.55;3.53;;;;;;;14.51;43.74;99352.88;5145624;28;20035;-79
2023/05/28 02:59:00;;;;;;;6.30;3.83;;;;;;;14.50;43.55;99350.31;5146563;28;20069;-78
2023/05/28 03:01:27;;;;;;;6.72;3.78;;;;;;;14.50;43.67;99355.66;5146206;28;20291;-79
2023/05/28 03:03:54;;;;;;;6.20;3.80;;;;;;;14.48;43.73;99354.91;5146495;28;20039;-78
2023/05/28 03:06:21;;;;;;;6.65;3.63;;;;;;;14.39;44.09;99357.25;5145533;28;20295;-78
2023/05/28 03:08:49;;;;;;;8.95;3.67;;;;;;;14.34;43.93;99356.75;5146702;28;20198;-78
2023/05/28 03:11:16;;;;;;;7.35;4.22;;;;;;;14.30;44.25;99357.06;5146375;28;20059;-79
2023/05/28 03:13:43;;;;;;;4.82;3.15;;;;;;;14.26;44.04;99359.09;5146423;28;20291;-79
2023/05/28 03:16:10;;;;;;;5.32;3.30;;;;;;;14.24;44.23;99361.00;5148882;27;20100;-79
2023/05/28 03:18:37;;;;;;;7.35;3.95;;;;;;;14.24;44.13;99366.34;5150402;27;20039;-78
2023/05/28 03:21:04;;;;;;;7.18;3.80;;;;;;;14.20;44.19;99367.50;5150176;27;20053;-79
2023/05/28 03:23:30;;;;;;;5.88;3.80;;;;;;;14.19;44.22;99367.63;5149551;27;20035;-79
2023/05/28 03:25:59;;;;;;;7.22;3.53;;;;;;;14.19;44.40;99367.63;5150191;27;20035;-78
2023/05/28 03:28:26;;;;;;;7.63;3.80;;;;;;;14.17;44.28;99362.41;5150511;27;20055;-79
2023/05/28 03:30:57;;;;;;;6.43;3.65;;;;;;;14.11;44.76;99363.69;5149357;27;20039;-79
2023/05/28 03:33:24;;;;;;;5.63;3.40;;;;;;;14.10;44.38;99361.97;5149474;27;20110;-79
2023/05/28 03:35:51;;;;;;;7.43;4.07;;;;;;;14.10;44.48;99371.78;5150115;27;20047;-78
2023/05/28 03:38:17;;;;;;;5.68;3.45;;;;;;;13.83;44.78;99320.41;5150448;27;20039;-78
2023/05/28 03:40:44;;;;;;;6.80;3.72;;;;;;;14.03;44.89;99368.69;5150613;27;20039;-78
2023/05/28 03:43:12;;;;;;;5.80;3.60;;;;;;;14.00;44.98;99360.91;5150074;27;20051;-78
2023/05/28 03:45:39;;;;;;;6.22;4.10;;;;;;;13.90;45.20;99349.19;5150082;27;20043;-79
2023/05/28 03:48:07;;;;;;;6.63;3.85;;;;;;;13.95;45.01;99356.84;5149871;27;20031;-78
2023/05/28 03:50:34;;;;;;;5.93;3.85;;;;;;;13.60;45.01;99296.19;5149820;27;20035;-79
2023/05/28 03:53:01;;;;;;;7.97;3.67;;;;;;;13.94;45.33;99358.66;5149787;27;20046;-78
2023/05/28 03:55:28;;;;;;;5.90;3.72;;;;;;;13.92;45.26;99352.59;5148895;27;20058;-79
2023/05/28 03:57:55;;;;;;;6.00;3.65;;;;;;;13.92;45.07;99359.72;5149129;27;20049;-78
2023/05/28 04:00:23;;;;;;;5.07;3.42;;;;;;;13.91;45.21;99355.34;5149979;27;20084;-79
2023/05/28 04:02:50;;;;;;;7.63;3.95;;;;;;;13.87;45.59;99351.19;5149620;27;20066;-78
2023/05/28 04:05:17;;;;;;;5.82;4.38;;;;;;;13.85;45.40;99353.13;5148650;27;20303;-79
2023/05/28 04:07:44;;;;;;;6.07;3.65;;;;;;;13.86;45.37;99349.50;5149474;27;20215;-79
2023/05/28 04:10:11;;;;;;;8.07;4.03;;;;;;;13.26;45.35;99248.84;5148574;27;20062;-79
2023/05/28 04:12:38;;;;;;;9.00;3.97;;;;;;;13.83;45.64;99352.38;5149295;27;20054;-78
2023/05/28 04:15:07;;;;;;;6.03;3.53;;;;;;;13.84;45.46;99351.41;5148498;27;20046;-79
2023/05/28 04:17:35;;;;;;;5.35;3.92;;;;;;;13.82;45.94;99348.84;5148479;27;20054;-79
2023/05/28 04:20:05;;;;;;;7.15;3.80;;;;;;;13.78;45.69;99348.22;5149523;27;20232;-79
2023/05/28 04:22:33;;;;;;;4.63;3.15;;;;;;;13.82;45.72;99359.50;5148345;27;20035;-78
2023/05/28 04:25:01;;;;;;;7.55;3.75;;;;;;;13.88;45.73;99350.25;5149685;27;20039;-78
2023/05/28 04:27:28;;;;;;;6.10;4.00;;;;;;;13.71;46.21;99320.28;5148582;27;20058;-79
2023/05/28 04:29:56;;;;;;;7.53;4.82;;;;;;;13.97;45.86;99349.59;5148247;27;20039;-78
2023/05/28 04:32:23;;;;;;;7.05;3.95;;;;;;;13.92;46.07;99347.25;5149003;27;20043;-78
2023/05/28 04:34:53;;;;;;;7.90;4.53;;;;;;;13.92;46.22;99351.72;5148048;27;20035;-79
2023/05/28 04:37:21;;;;;;;7.47;5.00;;;;;;;13.96;46.16;99347.91;5148046;27;20295;-79
2023/05/28 04:39:48;;;;;;;6.03;3.92;;;;;;;14.03;46.10;99357.19;5131167;27;20052;-79
2023/05/28 04:42:17;;;;;;;5.97;3.58;;;;;;;14.04;45.92;99358.88;5147680;27;20063;-79
2023/05/28 04:44:44;;;;;;;8.15;4.13;;;;;;;14.07;45.89;99367.50;5148637;27;20372;-79
2023/05/28 04:47:11;;;;;;;7.15;4.05;;;;;;;14.08;46.31;99357.72;5149171;27;20045;-79
2023/05/28 04:49:40;;;;;;;5.28;3.70;;;;;;;14.10;46.12;99358.47;5148625;27;20045;-79
2023/05/28 04:52:08;;;;;;;9.30;3.53;;;;;;;14.15;46.24;99356.31;5148660;27;20051;-79
2023/05/28 04:54:35;;;;;;;7.40;4.15;;;;;;;14.19;46.53;99359.63;5148543;27;20173;-79
2023/05/28 04:57:04;;;;;;;7.53;4.10;;;;;;;14.22;46.52;99368.25;5147720;27;20031;-78
2023/05/28 04:59:32;;;;;;;6.35;3.92;;;;;;;14.26;46.25;99367.09;5149155;27;20046;-78
2023/05/28 05:01:59;;;;;;;7.43;4.30;;;;;;;14.31;46.30;99366.75;5148352;27;20095;-79
2023/05/28 05:04:25;;;;;;;5.78;3.80;;;;;;;14.36;46.22;99361.97;5148256;27;20179;-79
2023/05/28 05:06:52;;;;;;;7.15;3.75;;;;;;;14.03;45.98;99304.72;5147293;27;20039;-79
2023/05/28 05:09:20;;;;;;;6.53;3.45;;;;;;;14.43;45.98;99363.22;5147352;27;20102;-79
2023/05/28 05:11:47;;;;;;;6.68;4.38;;;;;;;14.46;45.96;99360.34;5148504;27;20049;-79
2023/05/28 05:14:14;;;;;;;8.38;4.20;;;;;;;14.51;45.65;99363.53;5147235;27;20049;-79
2023/05/28 05:16:41;;;;;;;7.78;4.50;;;;;;;14.57;45.37;99351.59;5148461;27;20046;-78
2023/05/28 05:19:08;;;;;;;5.57;4.18;;;;;;;14.60;45.49;99362.94;5147212;27;20035;-78
2023/05/28 05:21:35;;;;;;;10.98;4.38;;;;;;;14.63;45.27;99353.88;5148655;27;20043;-79
2023/05/28 05:24:02;;;;;;;6.47;3.97;;;;;;;14.64;45.37;99355.59;5147226;27;20035;-78
2023/05/28 05:26:30;;;;;;;6.88;4.10;;;;;;;14.67;45.23;99353.53;5147129;27;20035;-79
2023/05/28 05:28:57;;;;;;;6.20;3.83;;;;;;;14.72;45.32;99350.53;5147839;27;20074;-78
2023/05/28 05:31:24;;;;;;;6.13;3.47;;;;;;;14.10;45.61;99249.19;5148474;27;20034;-78
2023/05/28 05:33:51;;;;;;;7.13;3.55;;;;;;;14.79;45.63;99348.28;5148130;27;20057;-78
2023/05/28 05:36:18;;;;;;;6.22;4.10;;;;;;;14.49;45.37;99305.94;5148079;27;20287;-79
2023/05/28 05:38:45;;;;;;;5.55;3.78;;;;;;;14.65;45.37;99299.47;5147065;27;20043;-78
2023/05/28 05:41:12;;;;;;;7.72;4.28;;;;;;;14.95;44.84;99339.06;5147610;27;20043;-78
2023/05/28 05:43:40;;;;;;;5.22;3.47;;;;;;;14.99;44.92;99335.19;5147386;27;20055;-78
2023/05/28 05:46:07;;;;;;;7.18;3.83;;;;;;;15.03;44.78;99331.34;5146730;27;20080;-78
2023/05/28 05:48:34;;;;;;;8.43;3.95;;;;;;;14.71;44.85;99276.81;5147370;27;20047;-78
2023/05/28 05:51:02;;;;;;;4.97;3.55;;;;;;;15.10;45.14;99334.41;5147990;27;20206;-78
2023/05/28 05:53:29;;;;;;;6.20;4.40;;;;;;;15.15;45.05;99348.25;5147985;27;20107;-79
2023/05/28 05:55:56;;;;;;;6.50;4.72;;;;;;;15.18;44.94;99334.69;5147506;27;20043;-79
2023/05/28 05:58:23;;;;;;;6.25;3.13;;;;;;;15.24;44.64;99331.56;5147942;27;20077;-78
2023/05/28 06:00:51;;;;;;;6.88;4.03;;;;;;;15.30;44.35;99336.44;5147294;27;20035;-78
2023/05/28 06:03:19;;;;;;;7.25;3.58;;;;;;;15.35;44.09;99334.28;5146685;27;20288;-78
2023/05/28 06:05:45;;;;;;;7.47;3.42;;;;;;;15.40;44.19;99331.25;5147494;27;20039;-78
2023/05/28 06:08:12;;;;;;;7.70;3.72;;;;;;;15.38;43.66;99328.69;5146959;27;20323;-78
2023/05/28 06:10:39;;;;;;;6.13;3.63;;;;;;;15.38;44.06;99336.72;5147491;27;20043;-78
2023/05/28 06:13:06;;;;;;;6.97;3.45;;;;;;;15.40;43.69;99334.78;5146179;27;20035;-78
2023/05/28 06:15:33;;;;;;;6.25;3.88;;;;;;;15.46;43.98;99338.81;5146460;27;20039;-78
2023/05/28 06:18:01;;;;;;;5.78;3.50;;;;;;;15.50;43.84;99336.75;5147027;27;20084;-78
2023/05/28 06:20:28;;;;;;;6.93;3.58;;;;;;;15.56;43.91;99336.28;5146204;27;20038;-78
2023/05/28 06:22:55;;;;;;;6.75;3.88;;;;;;;15.62;43.82;99344.69;5146085;27;20241;-78
2023/05/28 06:25:23;;;;;;;7.47;3.53;;;;;;;15.65;43.71;99336.47;5146840;27;20042;-78
2023/05/28 06:27:51;;;;;;;9.48;4.07;;;;;;;15.69;43.70;99337.09;5145998;27;20035;-78
2023/05/28 06:30:18;;;;;;;6.35;4.15;;;;;;;15.70;43.55;99336.97;5147111;27;20050;-78
2023/05/28 06:32:44;;;;;;;5.32;3.72;;;;;;;15.74;43.65;99340.25;5146794;27;20084;-78
2023/05/28 06:35:13;;;;;;;8.70;4.25;;;;;;;15.07;43.84;99223.38;5147094;27;20047;-78
2023/05/28 06:37:39;;;;;;;6.55;3.88;;;;;;;15.78;43.77;99338.22;5146995;27;20302;-78
2023/05/28 06:40:07;;;;;;;7.32;3.97;;;;;;;15.82;43.80;99334.34;5146983;27;20083;-78
2023/05/28 06:42:34;;;;;;;6.55;3.40;;;;;;;15.89;43.87;99340.91;5146565;27;20043;-78
2023/05/28 06:45:01;;;;;;;6.80;3.80;;;;;;;15.96;43.77;99340.31;5145974;27;20356;-78
2023/05/28 06:47:28;;;;;;;5.38;3.47;;;;;;;16.05;43.51;99341.41;5146464;27;20207;-77
2023/05/28 06:49:55;;;;;;;8.15;4.90;;;;;;;15.95;43.26;99317.22;5150425;27;20321;-78
2023/05/28 06:52:24;;;;;;;6.85;4.00;;;;;;;15.58;43.39;99239.03;5153324;27;20039;-77
2023/05/28 06:54:51;;;;;;;6.43;3.92;;;;;;;16.27;43.33;99348.63;5153424;27;20066;-78
2023/05/28 06:57:17;;;;;;;7.13;3.90;;;;;;;16.37;43.32;99346.91;5153481;27;20051;-78
2023/05/28 06:59:44;;;;;;;6.13;4.13;;;;;;;15.67;43.10;99211.66;5152605;27;20041;-78
2023/05/28 07:02:11;;;;;;;6.80;4.45;;;;;;;16.53;42.57;99342.03;5152794;27;20031;-78
2023/05/28 07:04:38;;;;;;;6.03;4.38;;;;;;;16.60;42.95;99345.09;5154144;27;20104;-78
2023/05/28 07:07:05;;;;;;;7.10;4.35;;;;;;;16.72;42.30;99348.63;5153393;27;20332;-78
2023/05/28 07:09:35;;;;;;;6.43;3.50;;;;;;;16.84;42.30;99347.63;5153594;27;20326;-78
2023/05/28 07:12:02;;;;;;;5.80;4.25;;;;;;;16.93;42.18;99341.53;5135299;27;20065;-78
2023/05/28 07:14:29;;;;;;;6.13;3.75;;;;;;;16.88;42.15;99301.75;5152464;27;20041;-78
2023/05/28 07:16:56;;;;;;;6.38;3.55;;;;;;;17.29;41.96;99330.50;5153169;27;20069;-78
2023/05/28 07:19:22;;;;;;;7.18;4.10;;;;;;;17.46;41.73;99322.88;5153579;27;20298;-78
2023/05/28 07:21:49;;;;;;;7.85;4.00;;;;;;;17.71;41.56;99329.75;5154606;27;20043;-78
2023/05/28 07:24:16;;;;;;;4.75;3.67;;;;;;;17.95;41.31;99330.31;5153257;27;20236;-78
2023/05/28 07:26:45;;;;;;;10.40;4.90;;;;;;;18.23;40.89;99329.63;5153687;27;20088;-78
2023/05/28 07:29:13;;;;;;;10.32;4.20;;;;;;;18.49;40.47;99324.66;5152898;27;20317;-78
2023/05/28 07:31:40;;;;;;;7.70;4.20;;;;;;;18.74;39.99;99318.00;5153057;27;20089;-78
2023/05/28 07:34:06;;;;;;;5.82;3.95;;;;;;;18.88;39.50;99324.81;5152012;27;20066;-78
2023/05/28 07:36:33;;;;;;;7.82;4.63;;;;;;;19.03;39.75;99333.31;5153021;27;20049;-78
2023/05/28 07:39:01;;;;;;;7.88;4.20;;;;;;;19.03;39.31;99285.81;5152045;27;20036;-78
2023/05/28 07:41:27;;;;;;;5.97;4.10;;;;;;;19.12;38.64;99276.06;5152446;27;20100;-78
2023/05/28 07:43:56;;;;;;;7.05;4.40;;;;;;;19.52;38.81;99309.06;5152975;27;20058;-78
2023/05/28 07:46:22;;;;;;;8.00;3.83;;;;;;;19.77;38.62;99313.00;5153174;27;20035;-78
2023/05/28 07:48:49;;;;;;;7.72;3.95;;;;;;;19.94;37.97;99308.75;5153226;27;20111;-78
2023/05/28 07:51:17;;;;;;;5.70;3.60;;;;;;;20.04;38.18;99316.78;5135145;27;20202;-78
2023/05/28 07:53:44;;;;;;;6.00;3.63;;;;;;;19.68;38.00;99237.72;5153089;27;20039;-78
2023/05/28 07:56:11;;;;;;;8.48;4.38;;;;;;;20.21;37.76;99317.88;5152618;27;20186;-78
2023/05/28 07:58:38;;;;;;;6.63;4.53;;;;;;;20.46;37.93;99314.56;5152009;27;20075;-78
2023/05/28 08:01:08;;;;;;;7.70;4.28;;;;;;;20.31;37.45;99257.69;5151359;27;20102;-78
2023/05/28 08:03:36;;;;;;;5.95;3.35;;;;;;;20.67;37.41;99317.00;5149835;27;20043;-78
2023/05/28 08:06:03;;;;;;;6.50;3.97;;;;;;;20.85;37.29;99308.97;5149528;27;20035;-78
2023/05/28 08:08:30;;;;;;;6.43;4.32;;;;;;;20.85;37.41;99314.34;5149306;27;20039;-78
2023/05/28 08:10:57;;;;;;;6.53;4.07;;;;;;;21.07;37.15;99298.63;5149501;27;20076;-78
2023/05/28 08:13:24;;;;;;;6.75;3.83;;;;;;;21.30;36.76;99295.50;5131582;27;20031;-78
2023/05/28 08:15:51;;;;;;;11.30;4.65;;;;;;;21.40;36.50;99280.94;5149569;27;20198;-78
2023/05/28 08:18:19;;;;;;;6.88;3.50;;;;;;;21.48;36.28;99290.09;5148475;27;20279;-78
2023/05/28 08:20:46;;;;;;;7.32;4.68;;;;;;;21.63;36.49;99288.53;5149099;27;20062;-78
2023/05/28 08:23:13;;;;;;;6.65;3.80;;;;;;;21.82;36.43;99282.97;5148305;27;20346;-78
2023/05/28 08:25:40;;;;;;;7.63;4.43;;;;;;;21.95;36.04;99282.56;5131173;27;20043;-78
2023/05/28 08:28:09;;;;;;;6.82;3.88;;;;;;;21.99;35.72;99284.78;5148344;27;20325;-78
2023/05/28 08:30:36;;;;;;;7.53;4.88;;;;;;;22.02;35.92;99284.47;5149212;27;20050;-78
2023/05/28 08:33:03;;;;;;;6.63;4.55;;;;;;;22.05;36.11;99278.75;5148952;27;20295;-78
2023/05/28 08:35:31;;;;;;;6.90;4.57;;;;;;;22.14;35.87;99281.50;5148673;27;20038;-78
2023/05/28 08:37:58;;;;;;;6.47;3.92;;;;;;;22.12;35.71;99275.41;5149081;27;20088;-78
2023/05/28 08:40:26;;;;;;;6.70;4.53;;;;;;;22.14;36.18;99276.09;5148916;27;20050;-78
2023/05/28 08:42:53;;;;;;;5.95;3.63;;;;;;;22.27;36.08;99276.50;5147749;27;20069;-78
2023/05/28 08:45:20;;;;;;;7.70;4.82;;;;;;;22.34;36.04;99274.84;5148800;27;20043;-78
2023/05/28 08:47:48;;;;;;;8.15;5.05;;;;;;;22.45;36.10;99274.59;5148610;27;20283;-78
2023/05/28 08:50:16;;;;;;;6.85;3.83;;;;;;;22.32;35.53;99236.38;5148628;27;20126;-78
2023/05/28 08:52:45;;;;;;;7.47;4.60;;;;;;;22.41;35.48;99247.06;5149200;27;20098;-78
2023/05/28 08:55:12;;;;;;;6.63;4.60;;;;;;;22.61;35.95;99265.75;5148583;27;20043;-78
2023/05/28 08:57:39;;;;;;;8.48;4.53;;;;;;;22.30;35.64;99196.03;5148740;27;20038;-78
2023/05/28 09:00:08;;;;;;;5.78;3.90;;;;;;;22.81;35.63;99275.25;5148375;27;20043;-78
2023/05/28 09:02:35;;;;;;;7.43;4.00;;;;;;;22.94;35.46;99269.38;5148747;27;20063;-78
2023/05/28 09:05:03;;;;;;;6.13;3.55;;;;;;;23.03;35.50;99263.81;5148658;27;20039;-78
2023/05/28 09:07:30;;;;;;;6.03;3.50;;;;;;;23.08;35.41;99265.19;5148788;27;20066;-78
2023/05/28 09:09:58;;;;;;;6.72;4.38;;;;;;;23.10;35.54;99268.56;5148183;27;20108;-78
2023/05/28 09:12:26;;;;;;;6.80;4.07;;;;;;;23.20;35.26;99255.75;5146818;27;20041;-78
2023/05/28 09:14:54;;;;;;;6.85;3.90;;;;;;;23.24;35.08;99259.81;5147004;27;20035;-78
2023/05/28 09:17:33;;;;;;;5.80;4.28;;;;;;;23.11;34.59;99254.03;5147711;27;20112;-79
2023/05/28 09:20:00;;;;;;;7.60;4.55;;;;;;;22.85;35.28;99210.94;5148153;27;20046;-79
2023/05/28 09:22:28;;;;;;;8.10;4.18;;;;;;;22.88;35.30;99218.72;5148488;27;20117;-78
2023/05/28 09:24:56;;;;;;;9.23;4.80;;;;;;;22.56;35.23;99163.59;5148573;27;20049;-78
2023/05/28 09:27:25;;;;;;;8.93;4.85;;;;;;;23.04;35.13;99213.31;5130353;27;20031;-78
2023/05/28 09:29:53;;;;;;;7.78;4.82;;;;;;;23.34;34.81;99245.13;5147124;27;20050;-78
2023/05/28 09:32:21;;;;;;;7.05;4.30;;;;;;;23.01;34.76;99192.03;5148524;27;20283;-78
2023/05/28 09:34:49;;;;;;;7.30;4.22;;;;;;;23.39;34.57;99241.94;5147218;27;20066;-78
2023/05/28 09:37:18;;;;;;;5.82;3.92;;;;;;;23.35;34.61;99238.72;5147223;27;20176;-78
2023/05/28 09:39:45;;;;;;;7.38;4.57;;;;;;;23.21;34.63;99239.34;5147653;27;20057;-78
2023/05/28 09:42:12;;;;;;;6.15;4.32;;;;;;;23.18;35.18;99236.16;5147263;27;20066;-78
2023/05/28 09:44:42;;;;;;;7.57;4.07;;;;;;;23.30;34.76;99234.81;5147564;27;20184;-78
2023/05/28 09:47:17;;;;;;;8.05;4.30;;;;;;;23.39;34.26;99230.25;5113173;27;20118;-78
2023/05/28 09:49:46;;;;;;;6.68;4.10;;;;;;;23.54;34.71;99236.69;5146858;27;20319;-78
2023/05/28 09:52:18;;;;;;;9.13;5.28;;;;;;;23.66;34.42;99238.88;5147768;27;20114;-78
2023/05/28 09:54:51;;;;;;;8.50;5.35;;;;;;;23.78;34.73;99238.50;5147763;27;20100;-78
2023/05/28 09:57:19;;;;;;;6.30;4.65;;;;;;;23.88;34.49;99239.16;5146562;27;20080;-78
2023/05/28 09:59:51;;;;;;;6.15;4.20;;;;;;;23.91;34.30;99231.56;5147144;27;20206;-78
2023/05/28 10:02:26;;;;;;;7.53;5.18;;;;;;;21.96;33.89;98901.97;5146454;27;20047;-78
2023/05/28 10:04:55;;;;;;;8.45;4.43;;;;;;;23.96;34.05;99222.91;5147567;27;20057;-78
2023/05/28 10:07:25;;;;;;;7.30;4.78;;;;;;;23.98;33.80;99231.72;5147601;27;20043;-78
2023/05/28 10:09:55;;;;;;;11.95;4.78;;;;;;;23.89;33.91;99230.88;5147766;27;20035;-78
2023/05/28 10:12:26;;;;;;;9.38;5.07;;;;;;;23.79;34.29;99200.47;5147206;27;20223;-78
2023/05/28 10:14:56;;;;;;;7.55;4.40;;;;;;;24.04;34.14;99227.50;5147247;27;20043;-78
2023/05/28 10:17:23;;;;;;;9.10;4.75;;;;;;;24.05;34.18;99230.03;5147787;27;20358;-79
2023/05/28 10:19:50;;;;;;;7.47;4.47;;;;;;;24.07;34.10;99225.28;5146966;27;20035;-79
2023/05/28 10:22:17;;;;;;;8.52;4.22;;;;;;;24.03;34.15;99217.69;5147124;27;20242;-79
2023/05/28 10:24:45;;;;;;;9.35;5.28;;;;;;;23.57;34.18;99153.34;5147026;27;20291;-79
2023/05/28 10:27:18;;;;;;;8.73;5.15;;;;;;;24.11;33.92;99210.38;5147267;27;20092;-79
2023/05/28 10:29:47;;;;;;;9.27;4.93;;;;;;;24.10;34.06;99218.69;5147639;27;20080;-79
2023/05/28 10:32:16;;;;;;;7.50;4.95;;;;;;;24.09;33.79;99211.56;5148378;27;20099;-79
2023/05/28 10:34:43;;;;;;;8.40;4.85;;;;;;;24.14;34.08;99211.88;5147570;27;20225;-79
2023/05/28 10:37:13;;;;;;;8.70;5.07;;;;;;;24.21;33.88;99215.59;5148112;27;20047;-80
2023/05/28 10:39:42;;;;;;;9.18;5.35;;;;;;;24.25;33.80;99215.06;5147184;27;20219;-83
2023/05/28 10:42:10;;;;;;;7.18;4.35;;;;;;;24.28;33.97;99211.16;5148481;27;20043;-79
2023/05/28 10:44:50;;;;;;;8.18;5.22;;;;;;;24.05;33.24;99175.03;5148030;27;20039;-80
2023/05/28 10:47:19;;;;;;;6.30;4.65;;;;;;;23.98;33.95;99173.03;5147274;27;20045;-79
2023/05/28 10:49:59;;;;;;;10.07;4.93;;;;;;;24.14;33.35;99211.88;5147462;28;20260;-79
2023/05/28 10:52:26;;;;;;;8.60;5.13;;;;;;;24.11;33.74;99204.13;5146777;28;20035;-78
2023/05/28 10:54:54;;;;;;;8.25;5.03;;;;;;;24.04;33.89;99198.56;5146504;27;20042;-78
2023/05/28 10:57:21;;;;;;;7.95;5.10;;;;;;;24.10;33.89;99202.44;5146732;28;20031;-79
2023/05/28 10:59:50;;;;;;;17.15;6.28;;;;;;;23.91;33.81;99173.88;5146916;28;20031;-79
2023/05/28 11:02:25;;;;;;;7.40;4.85;;;;;;;24.07;33.49;99197.38;5145678;28;20215;-78
2023/05/28 11:04:55;;;;;;;6.65;4.60;;;;;;;23.94;33.81;99168.94;5145655;28;20042;-79
2023/05/28 11:07:23;;;;;;;6.82;4.35;;;;;;;24.11;33.42;99201.41;5146360;28;20311;-79
2023/05/28 11:09:51;;;;;;;7.57;4.35;;;;;;;23.83;33.58;99154.94;5146919;27;20041;-78
2023/05/28 11:12:20;;;;;;;7.20;4.10;;;;;;;23.98;33.73;99166.78;5146368;28;20042;-77
2023/05/28 11:14:46;;;;;;;10.02;7.68;;;;;;;23.90;33.77;99140.56;5147034;27;20051;-77
2023/05/28 11:17:13;;;;;;;8.05;5.68;;;;;;;24.24;33.59;99199.84;5146208;27;20336;-77
2023/05/28 11:19:43;;;;;;;10.82;5.47;;;;;;;24.31;33.62;99195.41;5146952;27;20057;-77
2023/05/28 11:22:10;;;;;;;7.20;4.63;;;;;;;23.85;33.63;99125.84;5146914;28;20297;-77
2023/05/28 11:24:58;;;;;;;7.28;4.63;;;;;;;24.23;33.10;99187.31;5146434;27;20042;-77
2023/05/28 11:27:26;;;;;;;9.73;5.00;;;;;;;24.17;33.84;99188.03;5146529;28;20067;-77
2023/05/28 11:29:54;;;;;;;8.52;5.07;;;;;;;23.92;33.67;99153.91;5145989;28;20043;-77
2023/05/28 11:32:21;;;;;;;7.57;4.03;;;;;;;24.07;33.64;99187.38;5146969;27;20106;-78
2023/05/28 11:34:51;;;;;;;9.80;4.70;;;;;;;24.01;33.10;99182.66;5145736;28;20039;-77
2023/05/28 11:37:24;;;;;;;7.82;4.65;;;;;;;23.96;33.70;99176.91;5148800;27;20046;-77